Aviation Digital Data Service (ADDS)

Output produced by TAFs form (0208 UTC 19 July 2018)
found at http://www.aviationweather.gov/adds/tafs/
 
METAR text: RJTT 190200Z 17015KT 9999 FEW020 SCT/// 32/25 Q1010 NOSIG RMK 1CU020 A2984
Conditions at: RJTT (TOKYO INTL AIRPO, JP) observed 0200 UTC 19 July 2018
Temperature: 32.0°C (90°F)
Dewpoint: 25.0°C (77°F) [RH = 67%]
Pressure (altimeter): 29.82 inches Hg (1010.0 mb)
Winds: from the S (170 degrees) at 17 MPH (15 knots; 7.8 m/s)
Visibility: 6 or more miles (10+ km)
Ceiling: at least 12,000 feet AGL
Clouds: few clouds at 2000 feet AGL
Weather: no significant weather observed at this time

Forecast for: RJTT (TOKYO INTL AIRPO, JP)
Text: TAF RJTT 182305Z 1900/2006 17017KT 9999 FEW025
Forecast period: 0000 UTC 19 July 2018 to 0600 UTC 20 July 2018
Forecast type: FROM: standard forecast or significant change
Winds: from the S (170 degrees) at 20 MPH (17 knots; 8.8 m/s)
Visibility: 6 or more miles (10+ km)
Clouds: few clouds at 2500 feet AGL
Weather: no significant weather forecast for this period